sensor_id;sensor_type;location;lat;lon;timestamp;pressure;altitude;pressure_sealevel;temperature;humidity
15193;BME280;7697;51.630;7.484;2022-07-26T00:04:02;100574.94;;;22.21;63.00
15193;BME280;7697;51.630;7.484;2022-07-26T00:09:03;100570.66;;;22.15;63.53
15193;BME280;7697;51.630;7.484;2022-07-26T00:14:06;100575.00;;;22.16;63.86
15193;BME280;7697;51.630;7.484;2022-07-26T00:19:10;100581.75;;;22.08;64.11
15193;BME280;7697;51.630;7.484;2022-07-26T00:24:11;100567.19;;;22.04;64.32
15193;BME280;7697;51.630;7.484;2022-07-26T00:29:13;100565.59;;;21.98;64.17
15193;BME280;7697;51.630;7.484;2022-07-26T00:34:16;100564.22;;;22.05;64.26
15193;BME280;7697;51.630;7.484;2022-07-26T00:39:18;100565.84;;;21.96;64.73
15193;BME280;7697;51.630;7.484;2022-07-26T00:44:20;100564.00;;;21.92;64.78
15193;BME280;7697;51.630;7.484;2022-07-26T00:49:23;100566.97;;;21.90;65.25
15193;BME280;7697;51.630;7.484;2022-07-26T00:54:24;100568.31;;;21.78;65.40
15193;BME280;7697;51.630;7.484;2022-07-26T00:59:26;100569.97;;;21.68;65.98
15193;BME280;7697;51.630;7.484;2022-07-26T01:04:30;100568.91;;;21.54;66.28
15193;BME280;7697;51.630;7.484;2022-07-26T01:09:32;100564.34;;;21.45;66.73
15193;BME280;7697;51.630;7.484;2022-07-26T01:14:34;100569.47;;;21.36;67.10
15193;BME280;7697;51.630;7.484;2022-07-26T01:19:37;100564.63;;;21.28;67.63
15193;BME280;7697;51.630;7.484;2022-07-26T01:24:40;100558.44;;;21.27;67.60
15193;BME280;7697;51.630;7.484;2022-07-26T01:29:42;100558.13;;;21.14;68.25
15193;BME280;7697;51.630;7.484;2022-07-26T01:34:44;100561.09;;;21.02;68.68
15193;BME280;7697;51.630;7.484;2022-07-26T01:39:47;100561.38;;;21.01;68.67
15193;BME280;7697;51.630;7.484;2022-07-26T01:44:49;100565.09;;;20.94;68.65
15193;BME280;7697;51.630;7.484;2022-07-26T01:49:51;100570.50;;;20.84;68.58
15193;BME280;7697;51.630;7.484;2022-07-26T01:54:54;100568.59;;;20.80;69.31
15193;BME280;7697;51.630;7.484;2022-07-26T01:59:55;100572.63;;;20.77;69.50
15193;BME280;7697;51.630;7.484;2022-07-26T02:04:57;100573.69;;;20.71;70.40
15193;BME280;7697;51.630;7.484;2022-07-26T02:10:00;100576.91;;;20.68;70.29
15193;BME280;7697;51.630;7.484;2022-07-26T02:15:02;100576.66;;;20.70;70.01
15193;BME280;7697;51.630;7.484;2022-07-26T02:20:06;100575.59;;;20.71;70.15
15193;BME280;7697;51.630;7.484;2022-07-26T02:25:09;100580.69;;;20.77;70.02
15193;BME280;7697;51.630;7.484;2022-07-26T02:30:11;100574.78;;;20.80;70.13
15193;BME280;7697;51.630;7.484;2022-07-26T02:35:14;100582.06;;;20.80;69.92
15193;BME280;7697;51.630;7.484;2022-07-26T02:40:17;100594.19;;;20.82;70.04
15193;BME280;7697;51.630;7.484;2022-07-26T02:45:18;100584.22;;;20.83;70.83
15193;BME280;7697;51.630;7.484;2022-07-26T02:50:21;100589.34;;;20.79;70.92
15193;BME280;7697;51.630;7.484;2022-07-26T02:55:25;100587.19;;;20.81;71.37
15193;BME280;7697;51.630;7.484;2022-07-26T03:00:27;100586.63;;;20.79;72.75
15193;BME280;7697;51.630;7.484;2022-07-26T03:05:29;100594.16;;;20.77;73.01
15193;BME280;7697;51.630;7.484;2022-07-26T03:10:32;100587.72;;;20.78;73.85
15193;BME280;7697;51.630;7.484;2022-07-26T03:15:34;100599.03;;;20.75;73.99
15193;BME280;7697;51.630;7.484;2022-07-26T03:20:36;100593.09;;;20.73;73.98
15193;BME280;7697;51.630;7.484;2022-07-26T03:25:39;100594.94;;;20.68;74.30
15193;BME280;7697;51.630;7.484;2022-07-26T03:30:41;100604.09;;;20.62;74.40
15193;BME280;7697;51.630;7.484;2022-07-26T03:35:42;100597.34;;;20.59;74.97
15193;BME280;7697;51.630;7.484;2022-07-26T03:40:46;100607.59;;;20.57;75.23
15193;BME280;7697;51.630;7.484;2022-07-26T03:45:47;100607.31;;;20.53;75.35
15193;BME280;7697;51.630;7.484;2022-07-26T03:50:49;100616.19;;;20.54;75.17
15193;BME280;7697;51.630;7.484;2022-07-26T03:55:53;100621.00;;;20.52;75.10
15193;BME280;7697;51.630;7.484;2022-07-26T04:01:11;100622.91;;;20.51;75.47
15193;BME280;7697;51.630;7.484;2022-07-26T04:06:13;100614.81;;;20.51;75.66
15193;BME280;7697;51.630;7.484;2022-07-26T04:11:17;100633.41;;;20.48;75.84
15193;BME280;7697;51.630;7.484;2022-07-26T04:16:19;100633.41;;;20.48;76.05
15193;BME280;7697;51.630;7.484;2022-07-26T04:21:20;100643.09;;;20.49;75.88
15193;BME280;7697;51.630;7.484;2022-07-26T04:26:24;100654.91;;;20.48;76.67
15193;BME280;7697;51.630;7.484;2022-07-26T04:31:25;100665.94;;;20.46;77.50
15193;BME280;7697;51.630;7.484;2022-07-26T04:36:27;100660.25;;;20.43;78.58
15193;BME280;7697;51.630;7.484;2022-07-26T04:41:30;100670.66;;;20.29;79.81
15193;BME280;7697;51.630;7.484;2022-07-26T04:46:32;100662.72;;;20.07;81.17
15193;BME280;7697;51.630;7.484;2022-07-26T04:51:33;100663.72;;;19.91;82.96
15193;BME280;7697;51.630;7.484;2022-07-26T04:56:37;100666.66;;;19.90;83.85
15193;BME280;7697;51.630;7.484;2022-07-26T05:01:38;100662.09;;;19.90;84.01
15193;BME280;7697;51.630;7.484;2022-07-26T05:06:40;100657.94;;;19.72;85.27
15193;BME280;7697;51.630;7.484;2022-07-26T05:11:45;100669.38;;;19.58;86.57
15193;BME280;7697;51.630;7.484;2022-07-26T05:16:47;100681.75;;;19.59;87.28
15193;BME280;7697;51.630;7.484;2022-07-26T05:21:49;100676.97;;;19.66;87.20
15193;BME280;7697;51.630;7.484;2022-07-26T05:26:52;100682.34;;;19.66;87.93
15193;BME280;7697;51.630;7.484;2022-07-26T05:31:54;100676.16;;;19.65;88.03
15193;BME280;7697;51.630;7.484;2022-07-26T05:36:55;100674.78;;;19.63;89.03
15193;BME280;7697;51.630;7.484;2022-07-26T05:41:59;100684.97;;;19.61;88.96
15193;BME280;7697;51.630;7.484;2022-07-26T05:47:00;100687.13;;;19.59;88.90
15193;BME280;7697;51.630;7.484;2022-07-26T05:52:02;100680.13;;;19.58;89.54
15193;BME280;7697;51.630;7.484;2022-07-26T05:57:05;100682.84;;;19.63;89.95
15193;BME280;7697;51.630;7.484;2022-07-26T06:02:07;100682.34;;;19.66;90.35
15193;BME280;7697;51.630;7.484;2022-07-26T06:07:09;100688.53;;;19.66;90.44
15193;BME280;7697;51.630;7.484;2022-07-26T06:12:12;100687.66;;;19.61;90.17
15193;BME280;7697;51.630;7.484;2022-07-26T06:17:13;100691.47;;;19.65;90.53
15193;BME280;7697;51.630;7.484;2022-07-26T06:22:15;100698.75;;;19.69;89.84
15193;BME280;7697;51.630;7.484;2022-07-26T06:27:18;100698.84;;;19.79;90.14
15193;BME280;7697;51.630;7.484;2022-07-26T06:32:20;100705.28;;;19.78;89.96
15193;BME280;7697;51.630;7.484;2022-07-26T06:37:22;100712.44;;;20.00;89.52
15193;BME280;7697;51.630;7.484;2022-07-26T06:42:25;100705.03;;;20.17;89.23
15193;BME280;7697;51.630;7.484;2022-07-26T06:47:27;100705.44;;;20.36;89.72
15193;BME280;7697;51.630;7.484;2022-07-26T06:52:28;100709.25;;;20.45;89.39
15193;BME280;7697;51.630;7.484;2022-07-26T06:57:33;100709.81;;;20.47;89.14
15193;BME280;7697;51.630;7.484;2022-07-26T07:02:35;100710.69;;;20.57;88.22
15193;BME280;7697;51.630;7.484;2022-07-26T07:07:37;100715.25;;;20.62;88.62
15193;BME280;7697;51.630;7.484;2022-07-26T07:12:40;100720.75;;;20.87;87.92
15193;BME280;7697;51.630;7.484;2022-07-26T07:17:44;100720.78;;;20.97;88.08
15193;BME280;7697;51.630;7.484;2022-07-26T07:22:45;100723.00;;;21.11;87.29
15193;BME280;7697;51.630;7.484;2022-07-26T07:27:48;100727.91;;;21.19;87.13
15193;BME280;7697;51.630;7.484;2022-07-26T07:32:51;100737.31;;;21.21;86.19
15193;BME280;7697;51.630;7.484;2022-07-26T07:37:52;100737.66;;;21.45;85.18
15193;BME280;7697;51.630;7.484;2022-07-26T07:42:56;100745.44;;;21.42;85.03
15193;BME280;7697;51.630;7.484;2022-07-26T07:47:58;100747.88;;;21.48;85.10
15193;BME280;7697;51.630;7.484;2022-07-26T07:52:59;100755.44;;;21.56;83.94
15193;BME280;7697;51.630;7.484;2022-07-26T07:58:04;100753.56;;;21.67;84.24
15193;BME280;7697;51.630;7.484;2022-07-26T08:03:06;100750.13;;;22.07;81.78
15193;BME280;7697;51.630;7.484;2022-07-26T08:08:08;100753.31;;;22.39;80.11
15193;BME280;7697;51.630;7.484;2022-07-26T08:13:11;100747.84;;;22.60;78.71
15193;BME280;7697;51.630;7.484;2022-07-26T08:18:12;100749.72;;;22.64;79.00
15193;BME280;7697;51.630;7.484;2022-07-26T08:23:14;100744.31;;;22.79;78.24
15193;BME280;7697;51.630;7.484;2022-07-26T08:28:17;100744.25;;;22.95;76.69
15193;BME280;7697;51.630;7.484;2022-07-26T08:33:19;100747.94;;;23.09;76.78
15193;BME280;7697;51.630;7.484;2022-07-26T08:38:22;100748.69;;;23.25;75.64
15193;BME280;7697;51.630;7.484;2022-07-26T08:43:25;100747.56;;;23.31;76.58
15193;BME280;7697;51.630;7.484;2022-07-26T08:48:27;100750.38;;;23.10;75.42
15193;BME280;7697;51.630;7.484;2022-07-26T08:53:29;100762.72;;;23.32;74.44
15193;BME280;7697;51.630;7.484;2022-07-26T08:58:33;100752.72;;;23.76;73.10
15193;BME280;7697;51.630;7.484;2022-07-26T09:03:35;100748.84;;;24.45;69.71
15193;BME280;7697;51.630;7.484;2022-07-26T09:08:37;100751.53;;;23.87;69.12
15193;BME280;7697;51.630;7.484;2022-07-26T09:13:51;100761.13;;;24.04;68.31
15193;BME280;7697;51.630;7.484;2022-07-26T09:18:53;100763.88;;;24.33;67.54
15193;BME280;7697;51.630;7.484;2022-07-26T09:23:55;100767.88;;;24.40;65.07
15193;BME280;7697;51.630;7.484;2022-07-26T09:29:07;100770.47;;;24.16;64.50
15193;BME280;7697;51.630;7.484;2022-07-26T09:34:09;100781.81;;;23.89;66.43
15193;BME280;7697;51.630;7.484;2022-07-26T09:39:11;100788.44;;;23.73;66.22
15193;BME280;7697;51.630;7.484;2022-07-26T09:44:24;100786.22;;;23.80;66.16
15193;BME280;7697;51.630;7.484;2022-07-26T09:49:26;100787.94;;;24.05;65.54
15193;BME280;7697;51.630;7.484;2022-07-26T09:54:31;100796.59;;;24.02;65.51
15193;BME280;7697;51.630;7.484;2022-07-26T09:59:34;100807.22;;;23.44;67.65
15193;BME280;7697;51.630;7.484;2022-07-26T10:04:36;100816.44;;;22.79;70.43
15193;BME280;7697;51.630;7.484;2022-07-26T10:09:41;100818.09;;;22.44;71.40
15193;BME280;7697;51.630;7.484;2022-07-26T10:14:47;100827.53;;;22.22;72.53
15193;BME280;7697;51.630;7.484;2022-07-26T10:19:51;100832.09;;;22.46;72.76
15193;BME280;7697;51.630;7.484;2022-07-26T10:24:55;100838.06;;;22.28;72.66
15193;BME280;7697;51.630;7.484;2022-07-26T10:30:24;100854.28;;;22.18;72.44
15193;BME280;7697;51.630;7.484;2022-07-26T10:35:30;100851.84;;;22.06;73.46
15193;BME280;7697;51.630;7.484;2022-07-26T10:40:32;100870.38;;;21.88;73.67
15193;BME280;7697;51.630;7.484;2022-07-26T10:45:36;100877.13;;;21.80;74.42
15193;BME280;7697;51.630;7.484;2022-07-26T10:50:38;100877.84;;;21.55;75.68
15193;BME280;7697;51.630;7.484;2022-07-26T10:55:44;100878.34;;;21.42;76.94
15193;BME280;7697;51.630;7.484;2022-07-26T11:00:59;100889.91;;;21.38;78.07
15193;BME280;7697;51.630;7.484;2022-07-26T11:06:08;100887.47;;;21.36;79.43
15193;BME280;7697;51.630;7.484;2022-07-26T11:11:10;100886.75;;;21.56;79.38
15193;BME280;7697;51.630;7.484;2022-07-26T11:16:14;100892.22;;;21.86;79.02
15193;BME280;7697;51.630;7.484;2022-07-26T11:21:17;100898.53;;;22.32;78.32
15193;BME280;7697;51.630;7.484;2022-07-26T11:26:19;100896.66;;;22.43;76.94
15193;BME280;7697;51.630;7.484;2022-07-26T11:31:27;100891.78;;;22.30;77.60
15193;BME280;7697;51.630;7.484;2022-07-26T11:36:33;100899.34;;;22.53;78.12
15193;BME280;7697;51.630;7.484;2022-07-26T11:41:35;100915.28;;;22.60;77.10
15193;BME280;7697;51.630;7.484;2022-07-26T11:46:39;100933.06;;;22.20;76.35
15193;BME280;7697;51.630;7.484;2022-07-26T11:51:51;100945.66;;;21.89;76.34
15193;BME280;7697;51.630;7.484;2022-07-26T11:56:55;100949.41;;;21.88;76.15
15193;BME280;7697;51.630;7.484;2022-07-26T12:02:00;100953.44;;;21.86;76.93
15193;BME280;7697;51.630;7.484;2022-07-26T12:07:08;100946.53;;;22.00;76.84
15193;BME280;7697;51.630;7.484;2022-07-26T12:12:22;100954.13;;;22.18;76.22
15193;BME280;7697;51.630;7.484;2022-07-26T12:17:25;100942.78;;;22.21;76.55
15193;BME280;7697;51.630;7.484;2022-07-26T12:22:27;100942.00;;;22.46;76.00
15193;BME280;7697;51.630;7.484;2022-07-26T12:27:30;100942.25;;;23.10;73.86
15193;BME280;7697;51.630;7.484;2022-07-26T12:32:35;100943.53;;;23.38;72.00
15193;BME280;7697;51.630;7.484;2022-07-26T12:37:49;100947.09;;;23.98;68.70
15193;BME280;7697;51.630;7.484;2022-07-26T12:42:54;100936.75;;;24.54;66.09
15193;BME280;7697;51.630;7.484;2022-07-26T12:47:59;100946.19;;;24.23;66.73
15193;BME280;7697;51.630;7.484;2022-07-26T12:53:03;100940.09;;;24.41;66.67
15193;BME280;7697;51.630;7.484;2022-07-26T12:58:05;100953.13;;;24.39;63.72
15193;BME280;7697;51.630;7.484;2022-07-26T13:03:08;100965.00;;;24.77;62.56
15193;BME280;7697;51.630;7.484;2022-07-26T13:08:10;100960.91;;;24.80;64.78
15193;BME280;7697;51.630;7.484;2022-07-26T13:13:12;100952.63;;;24.66;62.51
15193;BME280;7697;51.630;7.484;2022-07-26T13:18:15;100956.09;;;25.05;63.07
15193;BME280;7697;51.630;7.484;2022-07-26T13:23:17;100952.25;;;25.35;62.67
15193;BME280;7697;51.630;7.484;2022-07-26T13:28:19;100953.19;;;25.50;60.72
15193;BME280;7697;51.630;7.484;2022-07-26T13:33:22;100959.47;;;25.69;61.18
15193;BME280;7697;51.630;7.484;2022-07-26T13:38:24;100963.31;;;25.68;60.19
15193;BME280;7697;51.630;7.484;2022-07-26T13:43:27;100970.25;;;25.50;60.69
15193;BME280;7697;51.630;7.484;2022-07-26T13:48:31;100967.91;;;25.43;61.35
15193;BME280;7697;51.630;7.484;2022-07-26T13:53:33;100960.09;;;25.13;60.78
15193;BME280;7697;51.630;7.484;2022-07-26T13:58:35;100948.44;;;24.79;61.36
15193;BME280;7697;51.630;7.484;2022-07-26T14:03:38;100953.41;;;24.72;62.14
15193;BME280;7697;51.630;7.484;2022-07-26T14:08:40;100961.72;;;24.51;61.36
15193;BME280;7697;51.630;7.484;2022-07-26T14:13:42;100963.03;;;24.54;61.33
15193;BME280;7697;51.630;7.484;2022-07-26T14:18:45;100961.53;;;24.72;61.56
15193;BME280;7697;51.630;7.484;2022-07-26T14:23:47;100959.56;;;24.48;61.80
15193;BME280;7697;51.630;7.484;2022-07-26T14:28:49;100962.47;;;24.52;61.36
15193;BME280;7697;51.630;7.484;2022-07-26T14:33:52;100969.22;;;24.59;60.51
15193;BME280;7697;51.630;7.484;2022-07-26T14:38:54;100974.06;;;24.62;58.92
15193;BME280;7697;51.630;7.484;2022-07-26T14:43:56;100973.97;;;24.39;60.06
15193;BME280;7697;51.630;7.484;2022-07-26T14:48:59;100983.41;;;23.97;59.21
15193;BME280;7697;51.630;7.484;2022-07-26T14:54:01;100979.38;;;23.84;61.16
15193;BME280;7697;51.630;7.484;2022-07-26T14:59:02;100979.16;;;23.76;61.24
15193;BME280;7697;51.630;7.484;2022-07-26T15:04:05;100975.06;;;23.83;62.27
15193;BME280;7697;51.630;7.484;2022-07-26T15:09:07;100977.69;;;24.04;61.42
15193;BME280;7697;51.630;7.484;2022-07-26T15:14:09;100978.47;;;24.04;61.21
15193;BME280;7697;51.630;7.484;2022-07-26T15:19:12;100975.19;;;24.90;59.69
15193;BME280;7697;51.630;7.484;2022-07-26T15:24:14;100965.19;;;24.52;61.46
15193;BME280;7697;51.630;7.484;2022-07-26T15:29:15;100970.94;;;25.13;60.05
15193;BME280;7697;51.630;7.484;2022-07-26T15:34:18;100966.13;;;24.37;59.17
15193;BME280;7697;51.630;7.484;2022-07-26T15:39:20;100977.91;;;24.07;60.54
15193;BME280;7697;51.630;7.484;2022-07-26T15:44:22;100969.50;;;24.09;61.94
15193;BME280;7697;51.630;7.484;2022-07-26T15:49:25;100977.63;;;24.09;62.94
15193;BME280;7697;51.630;7.484;2022-07-26T15:54:27;100974.41;;;24.07;62.50
15193;BME280;7697;51.630;7.484;2022-07-26T15:59:28;100977.84;;;23.63;62.05
15193;BME280;7697;51.630;7.484;2022-07-26T16:04:32;100990.91;;;23.10;63.37
15193;BME280;7697;51.630;7.484;2022-07-26T16:09:34;100993.06;;;22.68;67.01
15193;BME280;7697;51.630;7.484;2022-07-26T16:14:35;100991.13;;;22.28;69.30
15193;BME280;7697;51.630;7.484;2022-07-26T16:19:38;101005.06;;;21.99;70.71
15193;BME280;7697;51.630;7.484;2022-07-26T16:24:40;100994.16;;;21.84;72.27
15193;BME280;7697;51.630;7.484;2022-07-26T16:29:42;101002.28;;;21.89;72.57
15193;BME280;7697;51.630;7.484;2022-07-26T16:34:45;100985.03;;;21.90;72.38
15193;BME280;7697;51.630;7.484;2022-07-26T16:39:46;100975.94;;;22.06;72.09
15193;BME280;7697;51.630;7.484;2022-07-26T16:44:48;100985.97;;;22.16;72.02
15193;BME280;7697;51.630;7.484;2022-07-26T16:49:52;100980.84;;;22.25;71.96
15193;BME280;7697;51.630;7.484;2022-07-26T16:54:53;100986.50;;;22.23;71.97
15193;BME280;7697;51.630;7.484;2022-07-26T16:59:55;100991.91;;;22.28;72.34
15193;BME280;7697;51.630;7.484;2022-07-26T17:04:59;100987.31;;;22.24;72.48
15193;BME280;7697;51.630;7.484;2022-07-26T17:10:01;100993.00;;;22.27;72.80
15193;BME280;7697;51.630;7.484;2022-07-26T17:15:04;100994.59;;;22.28;73.06
15193;BME280;7697;51.630;7.484;2022-07-26T17:20:09;100993.00;;;22.27;73.11
15193;BME280;7697;51.630;7.484;2022-07-26T17:25:10;100999.47;;;22.26;73.05
15193;BME280;7697;51.630;7.484;2022-07-26T17:30:12;101000.81;;;22.24;73.11
15193;BME280;7697;51.630;7.484;2022-07-26T17:35:16;100990.03;;;22.19;73.42
15193;BME280;7697;51.630;7.484;2022-07-26T17:40:18;100987.81;;;22.11;73.83
15193;BME280;7697;51.630;7.484;2022-07-26T17:45:19;100991.56;;;21.99;74.36
15193;BME280;7697;51.630;7.484;2022-07-26T17:50:22;101000.66;;;21.88;74.95
15193;BME280;7697;51.630;7.484;2022-07-26T17:55:24;100998.22;;;21.82;75.10
15193;BME280;7697;51.630;7.484;2022-07-26T18:00:26;101002.00;;;21.81;74.76
15193;BME280;7697;51.630;7.484;2022-07-26T18:05:29;101001.94;;;21.76;74.32
15193;BME280;7697;51.630;7.484;2022-07-26T18:10:32;101002.22;;;21.74;74.71
15193;BME280;7697;51.630;7.484;2022-07-26T18:15:33;101010.88;;;21.81;74.53
15193;BME280;7697;51.630;7.484;2022-07-26T18:20:36;101014.13;;;21.83;74.69
15193;BME280;7697;51.630;7.484;2022-07-26T18:25:38;100997.66;;;21.80;74.57
15193;BME280;7697;51.630;7.484;2022-07-26T18:30:40;101003.06;;;21.80;75.15
15193;BME280;7697;51.630;7.484;2022-07-26T18:35:43;100998.75;;;21.84;74.99
15193;BME280;7697;51.630;7.484;2022-07-26T18:40:45;100994.16;;;21.79;75.12
15193;BME280;7697;51.630;7.484;2022-07-26T18:45:47;100994.16;;;21.74;75.62
15193;BME280;7697;51.630;7.484;2022-07-26T18:50:50;100999.25;;;21.70;75.55
15193;BME280;7697;51.630;7.484;2022-07-26T18:55:52;100997.63;;;21.69;75.10
15193;BME280;7697;51.630;7.484;2022-07-26T19:00:54;101009.72;;;21.67;76.00
15193;BME280;7697;51.630;7.484;2022-07-26T19:05:57;101017.50;;;21.58;76.41
15193;BME280;7697;51.630;7.484;2022-07-26T19:10:59;101017.97;;;21.45;76.29
15193;BME280;7697;51.630;7.484;2022-07-26T19:16:01;101022.25;;;21.41;76.14
15193;BME280;7697;51.630;7.484;2022-07-26T19:21:04;101021.66;;;21.34;75.68
15193;BME280;7697;51.630;7.484;2022-07-26T19:26:06;101037.75;;;21.24;75.60
15193;BME280;7697;51.630;7.484;2022-07-26T19:31:07;101035.44;;;21.06;75.46
15193;BME280;7697;51.630;7.484;2022-07-26T19:36:11;101041.28;;;20.97;75.86
15193;BME280;7697;51.630;7.484;2022-07-26T19:41:12;101045.78;;;20.87;75.20
15193;BME280;7697;51.630;7.484;2022-07-26T19:46:14;101051.34;;;20.75;74.65
15193;BME280;7697;51.630;7.484;2022-07-26T19:51:18;101052.94;;;20.76;74.29
15193;BME280;7697;51.630;7.484;2022-07-26T19:56:21;101051.84;;;20.72;74.08
15193;BME280;7697;51.630;7.484;2022-07-26T20:01:22;101061.47;;;20.68;73.93
15193;BME280;7697;51.630;7.484;2022-07-26T20:06:25;101062.00;;;20.65;73.58
15193;BME280;7697;51.630;7.484;2022-07-26T20:11:27;101058.88;;;20.51;73.24
15193;BME280;7697;51.630;7.484;2022-07-26T20:16:29;101074.91;;;20.41;73.26
15193;BME280;7697;51.630;7.484;2022-07-26T20:21:32;101071.50;;;20.46;73.25
15193;BME280;7697;51.630;7.484;2022-07-26T20:26:34;101074.91;;;20.41;73.43
15193;BME280;7697;51.630;7.484;2022-07-26T20:31:37;101079.50;;;20.41;73.06
15193;BME280;7697;51.630;7.484;2022-07-26T20:36:41;101071.94;;;20.38;72.32
15193;BME280;7697;51.630;7.484;2022-07-26T20:41:43;101083.66;;;20.32;72.46
15193;BME280;7697;51.630;7.484;2022-07-26T20:46:44;101080.53;;;20.18;72.29
15193;BME280;7697;51.630;7.484;2022-07-26T20:51:47;101079.16;;;20.15;73.00
15193;BME280;7697;51.630;7.484;2022-07-26T20:56:49;101088.81;;;20.11;72.71
15193;BME280;7697;51.630;7.484;2022-07-26T21:01:51;101098.41;;;20.07;73.04
15193;BME280;7697;51.630;7.484;2022-07-26T21:06:54;101099.09;;;19.98;72.11
15193;BME280;7697;51.630;7.484;2022-07-26T21:11:56;101108.06;;;19.86;72.30
15193;BME280;7697;51.630;7.484;2022-07-26T21:16:57;101107.69;;;19.78;71.20
15193;BME280;7697;51.630;7.484;2022-07-26T21:22:01;101116.59;;;19.62;70.68
15193;BME280;7697;51.630;7.484;2022-07-26T21:27:04;101116.28;;;19.58;70.31
15193;BME280;7697;51.630;7.484;2022-07-26T21:32:06;101114.66;;;19.57;70.73
15193;BME280;7697;51.630;7.484;2022-07-26T21:37:09;101115.13;;;19.54;70.74
15193;BME280;7697;51.630;7.484;2022-07-26T21:42:10;101127.75;;;19.54;69.74
15193;BME280;7697;51.630;7.484;2022-07-26T21:47:12;101124.38;;;19.46;69.25
15193;BME280;7697;51.630;7.484;2022-07-26T21:52:15;101132.38;;;19.41;68.78
15193;BME280;7697;51.630;7.484;2022-07-26T21:57:17;101142.63;;;19.44;68.69
15193;BME280;7697;51.630;7.484;2022-07-26T22:02:19;101150.44;;;19.46;68.98
15193;BME280;7697;51.630;7.484;2022-07-26T22:07:22;101155.00;;;19.45;68.09
15193;BME280;7697;51.630;7.484;2022-07-26T22:12:24;101155.97;;;19.39;67.88
15193;BME280;7697;51.630;7.484;2022-07-26T22:17:26;101155.63;;;19.36;68.70
15193;BME280;7697;51.630;7.484;2022-07-26T22:22:29;101163.22;;;19.22;67.39
15193;BME280;7697;51.630;7.484;2022-07-26T22:27:31;101157.06;;;19.10;68.11
15193;BME280;7697;51.630;7.484;2022-07-26T22:32:33;101153.91;;;19.13;68.02
15193;BME280;7697;51.630;7.484;2022-07-26T22:37:36;101155.44;;;19.09;67.80
15193;BME280;7697;51.630;7.484;2022-07-26T22:42:39;101166.53;;;19.13;68.33
15193;BME280;7697;51.630;7.484;2022-07-26T22:47:43;101164.06;;;19.11;68.82
15193;BME280;7697;51.630;7.484;2022-07-26T22:52:47;101159.59;;;18.88;67.86
15193;BME280;7697;51.630;7.484;2022-07-26T22:57:49;101163.41;;;18.76;68.46
15193;BME280;7697;51.630;7.484;2022-07-26T23:02:50;101166.78;;;18.71;68.44
15193;BME280;7697;51.630;7.484;2022-07-26T23:07:54;101163.88;;;18.72;68.76
15193;BME280;7697;51.630;7.484;2022-07-26T23:12:55;101160.38;;;18.72;68.68
15193;BME280;7697;51.630;7.484;2022-07-26T23:17:57;101171.69;;;18.74;69.24
15193;BME280;7697;51.630;7.484;2022-07-26T23:23:00;101167.50;;;18.78;69.59
15193;BME280;7697;51.630;7.484;2022-07-26T23:28:02;101162.94;;;18.79;69.77
15193;BME280;7697;51.630;7.484;2022-07-26T23:33:04;101165.03;;;18.77;70.02
15193;BME280;7697;51.630;7.484;2022-07-26T23:38:07;101171.44;;;18.76;70.37
15193;BME280;7697;51.630;7.484;2022-07-26T23:43:08;101161.69;;;18.69;70.42
15193;BME280;7697;51.630;7.484;2022-07-26T23:48:10;101160.97;;;18.62;70.42
15193;BME280;7697;51.630;7.484;2022-07-26T23:53:13;101163.19;;;18.54;70.54
15193;BME280;7697;51.630;7.484;2022-07-26T23:58:15;101158.44;;;18.44;70.50
